Time;durP1;ratioP1;P1;durP2;ratioP2;P2;SDS_P1;SDS_P2;PMS_P1;PMS_P2;Temp;Humidity;BMP_temperature;BMP_pressure;BME280_temperature;BME280_humidity;BME280_pressure;Samples;Min_cycle;Max_cycle;Signal;HPM_P1;HPM_P2
2023/06/09 13:31:11;;;;;;;5.07;3.80;;;29.10;54.70;;;;;;5087684;28;20312;-71
2023/06/09 13:33:36;;;;;;;6.30;4.32;;;28.70;56.40;;;;;;5088645;28;20433;-70
2023/06/09 13:36:02;;;;;;;6.07;4.13;;;28.80;53.60;;;;;;5084328;28;20089;-67
2023/06/09 13:38:29;;;;;;;6.50;4.43;;;28.80;54.90;;;;;;5088180;28;20048;-67
2023/06/09 13:40:54;;;;;;;6.32;4.03;;;29.00;54.60;;;;;;5088706;28;20028;-68
2023/06/09 13:43:21;;;;;;;5.30;3.58;;;29.10;53.80;;;;;;5087687;28;20536;-67
2023/06/09 13:45:47;;;;;;;6.28;4.47;;;29.20;54.50;;;;;;5086808;28;20020;-68
2023/06/09 13:48:12;;;;;;;5.70;3.70;;;29.30;52.90;;;;;;5087727;28;20097;-70
2023/06/09 13:50:39;;;;;;;5.13;3.33;;;29.40;53.80;;;;;;5079429;28;20090;-70
2023/06/09 13:53:04;;;;;;;8.20;4.80;;;29.50;54.20;;;;;;5068879;28;20546;-66
2023/06/09 13:55:30;;;;;;;5.75;3.88;;;29.60;54.20;;;;;;5066907;28;20123;-68
2023/06/09 13:57:56;;;;;;;5.50;3.55;;;29.70;54.00;;;;;;5066002;28;20029;-66
2023/06/09 14:00:22;;;;;;;6.15;4.03;;;29.90;53.60;;;;;;5067721;28;20032;-67
2023/06/09 14:02:47;;;;;;;4.88;3.70;;;30.00;52.10;;;;;;5067888;28;20107;-71
2023/06/09 14:05:13;;;;;;;6.72;3.97;;;30.10;51.30;;;;;;5071238;28;20016;-68
2023/06/09 14:07:41;;;;;;;6.50;4.30;;;30.20;50.70;;;;;;5086414;28;20077;-71
2023/06/09 14:10:08;;;;;;;5.40;3.70;;;30.20;50.60;;;;;;5087581;28;20024;-66
2023/06/09 14:12:33;;;;;;;7.20;4.30;;;30.20;50.50;;;;;;5087344;28;20028;-68
2023/06/09 14:14:59;;;;;;;6.20;3.90;;;30.20;49.90;;;;;;5086829;28;20024;-68
2023/06/09 14:17:25;;;;;;;6.88;3.85;;;30.40;50.50;;;;;;5086816;28;20419;-69
2023/06/09 14:19:53;;;;;;;4.50;3.20;;;30.50;49.30;;;;;;5085566;28;20017;-72
2023/06/09 14:22:19;;;;;;;5.22;3.90;;;30.70;49.90;;;;;;5087761;28;20059;-74
2023/06/09 14:24:45;;;;;;;5.38;3.78;;;30.80;49.20;;;;;;5088268;28;20043;-70
2023/06/09 14:27:11;;;;;;;6.47;4.45;;;30.80;49.30;;;;;;5086360;28;20108;-69
2023/06/09 14:29:37;;;;;;;5.72;3.90;;;31.00;48.40;;;;;;5095131;28;20044;-68
2023/06/09 14:32:03;;;;;;;7.40;3.88;;;31.30;48.00;;;;;;5107821;28;20020;-68
2023/06/09 14:34:30;;;;;;;5.65;3.60;;;31.50;48.90;;;;;;5107501;28;20081;-66
2023/06/09 14:36:56;;;;;;;6.00;3.67;;;31.80;48.10;;;;;;5106918;28;20099;-74
2023/06/09 14:39:22;;;;;;;6.10;3.78;;;31.90;48.60;;;;;;5107580;28;20452;-72
2023/06/09 14:41:48;;;;;;;5.03;3.63;;;32.30;47.40;;;;;;5097539;28;20082;-66
2023/06/09 14:44:17;;;;;;;6.15;3.55;;;33.00;46.80;;;;;;5074772;28;20389;-71
2023/06/09 14:46:43;;;;;;;6.93;3.88;;;33.50;46.80;;;;;;5090802;28;20012;-68
2023/06/09 14:49:09;;;;;;;5.13;4.05;;;33.90;45.80;;;;;;5094200;28;20035;-67
2023/06/09 14:51:35;;;;;;;5.18;3.53;;;34.30;45.10;;;;;;5094248;28;20032;-67
2023/06/09 14:54:01;;;;;;;4.88;3.80;;;34.60;44.30;;;;;;5093298;28;20020;-69
2023/06/09 14:56:28;;;;;;;6.40;3.90;;;34.30;43.40;;;;;;5094089;28;20084;-73
2023/06/09 14:58:53;;;;;;;7.05;4.07;;;33.90;43.10;;;;;;5093976;28;20061;-72
2023/06/09 15:01:19;;;;;;;5.85;3.60;;;33.80;44.10;;;;;;5091443;28;20419;-72
2023/06/09 15:03:45;;;;;;;4.72;3.58;;;33.90;44.00;;;;;;5093225;28;20027;-68
2023/06/09 15:06:10;;;;;;;6.97;3.97;;;34.30;44.00;;;;;;5093297;28;20020;-68
2023/06/09 15:08:38;;;;;;;5.55;3.67;;;34.60;43.20;;;;;;5093333;28;20012;-67
2023/06/09 15:11:04;;;;;;;4.47;3.65;;;34.70;42.40;;;;;;5079148;28;20060;-74
2023/06/09 15:13:30;;;;;;;7.72;4.18;;;34.30;42.20;;;;;;5088321;28;20611;-72
2023/06/09 15:15:55;;;;;;;5.47;4.03;;;34.20;42.90;;;;;;5091982;28;20055;-77
2023/06/09 15:18:21;;;;;;;8.73;3.92;;;34.30;42.70;;;;;;5071965;28;20095;-72
2023/06/09 15:20:47;;;;;;;5.13;3.58;;;34.50;42.80;;;;;;5071535;28;20028;-69
2023/06/09 15:23:12;;;;;;;4.75;3.53;;;34.40;41.60;;;;;;5070817;28;20043;-69
2023/06/09 15:25:40;;;;;;;5.80;3.80;;;34.10;42.40;;;;;;5085548;28;20028;-68
2023/06/09 15:28:10;;;;;;;5.45;3.83;;;34.30;42.80;;;;;;5091481;28;20052;-74
2023/06/09 15:30:42;;;;;;;5.65;4.45;;;34.80;41.80;;;;;;5074917;28;20043;-75
2023/06/09 15:33:10;;;;;;;8.40;3.90;;;35.10;41.40;;;;;;5078905;28;20464;-71
2023/06/09 15:35:38;;;;;;;5.65;4.15;;;35.00;41.20;;;;;;5071936;28;20086;-74
2023/06/09 15:38:06;;;;;;;5.82;4.25;;;34.90;40.70;;;;;;5070765;28;20498;-74
2023/06/09 15:40:38;;;;;;;6.72;3.72;;;34.40;41.50;;;;;;5071814;28;20028;-67
2023/06/09 15:43:04;;;;;;;5.32;3.85;;;34.40;42.60;;;;;;5071434;28;20350;-68
2023/06/09 15:45:40;;;;;;;6.05;4.00;;;34.90;42.10;;;;;;5072478;28;20467;-67
2023/06/09 15:48:06;;;;;;;5.93;4.20;;;35.60;41.40;;;;;;5071947;28;20032;-65
2023/06/09 15:50:32;;;;;;;5.28;3.97;;;36.10;40.80;;;;;;5087336;28;20039;-65
2023/06/09 15:52:58;;;;;;;5.72;4.32;;;36.40;40.50;;;;;;5112069;28;20024;-76
2023/06/09 15:55:24;;;;;;;5.88;3.92;;;36.70;40.80;;;;;;5093608;28;20104;-68
2023/06/09 15:57:49;;;;;;;6.95;4.65;;;36.90;38.90;;;;;;5089325;28;20485;-74
2023/06/09 16:00:16;;;;;;;7.55;5.03;;;36.90;38.70;;;;;;5080270;28;20047;-68
2023/06/09 16:02:41;;;;;;;11.25;4.20;;;37.10;39.20;;;;;;5076188;28;20093;-68
2023/06/09 16:05:07;;;;;;;4.68;4.03;;;37.40;39.10;;;;;;5087106;28;20751;-68
2023/06/09 16:07:32;;;;;;;4.70;3.97;;;37.60;38.30;;;;;;5090346;28;20501;-69
2023/06/09 16:09:58;;;;;;;5.75;4.70;;;37.40;38.10;;;;;;5092543;28;20138;-74
2023/06/09 16:12:24;;;;;;;8.52;4.75;;;36.70;38.60;;;;;;5091628;28;20107;-73
2023/06/09 16:14:50;;;;;;;8.25;4.22;;;36.40;39.10;;;;;;5090866;28;20411;-76
2023/06/09 16:17:16;;;;;;;6.70;4.68;;;36.10;39.10;;;;;;5090496;28;20016;-73
2023/06/09 16:19:42;;;;;;;5.03;4.07;;;35.40;39.80;;;;;;5091739;28;20031;-68
2023/06/09 16:22:07;;;;;;;5.63;4.03;;;35.40;40.30;;;;;;5092085;28;20020;-69
2023/06/09 16:24:33;;;;;;;9.43;4.47;;;35.90;40.00;;;;;;5092471;28;20353;-69
2023/06/09 16:26:58;;;;;;;5.40;4.15;;;36.50;39.90;;;;;;5091908;28;20041;-74
2023/06/09 16:29:24;;;;;;;12.23;4.70;;;37.00;38.30;;;;;;5089920;28;20507;-76
2023/06/09 16:31:50;;;;;;;6.47;3.90;;;37.40;37.90;;;;;;5092402;28;20024;-74
2023/06/09 16:34:15;;;;;;;6.00;4.32;;;37.40;37.20;;;;;;5091411;28;20020;-68
2023/06/09 16:36:41;;;;;;;6.43;4.03;;;37.30;37.40;;;;;;5092105;28;20523;-67
2023/06/09 16:39:07;;;;;;;6.07;4.65;;;36.80;38.20;;;;;;5091598;28;20097;-67
2023/06/09 16:41:32;;;;;;;5.47;4.03;;;36.00;39.00;;;;;;5082866;28;20393;-77
2023/06/09 16:44:00;;;;;;;5.72;4.03;;;35.90;39.10;;;;;;5072635;28;20103;-68
2023/06/09 16:46:26;;;;;;;4.90;3.78;;;36.20;39.30;;;;;;5071475;28;20024;-69
2023/06/09 16:48:51;;;;;;;5.65;4.18;;;36.80;38.80;;;;;;5075531;28;20028;-73
2023/06/09 21:49:56;;;;;;;9.63;7.40;;;23.60;61.70;;;;;;5026042;27;1256828;-69
2023/06/09 21:52:22;;;;;;;9.80;5.80;;;23.20;63.00;;;;;;5047767;28;20025;-69
2023/06/09 21:54:49;;;;;;;7.88;5.75;;;23.10;63.80;;;;;;5047430;28;20355;-74
2023/06/09 21:57:15;;;;;;;8.93;6.22;;;23.20;64.10;;;;;;5048193;28;20107;-76
2023/06/09 21:59:40;;;;;;;8.90;6.20;;;23.10;64.10;;;;;;5046416;28;20022;-73
2023/06/09 22:02:06;;;;;;;9.70;5.90;;;23.10;64.00;;;;;;5045823;28;20031;-69
2023/06/09 22:04:32;;;;;;;7.45;5.32;;;23.10;63.90;;;;;;5048446;28;20051;-68
2023/06/09 22:06:57;;;;;;;8.70;5.82;;;23.10;63.80;;;;;;5047834;28;20335;-69
2023/06/09 22:09:23;;;;;;;8.02;5.90;;;23.10;63.70;;;;;;5047792;28;20045;-68
2023/06/09 22:11:50;;;;;;;7.38;5.18;;;23.10;63.40;;;;;;5048637;28;20029;-70
2023/06/09 22:14:16;;;;;;;9.68;6.28;;;23.10;63.60;;;;;;5048197;28;20043;-68
2023/06/09 22:16:44;;;;;;;7.45;6.22;;;23.00;63.60;;;;;;5047756;28;20079;-73
2023/06/09 22:19:14;;;;;;;10.50;8.57;;;22.90;63.70;;;;;;5047941;28;20139;-70
2023/06/09 22:21:40;;;;;;;15.20;12.55;;;22.80;63.80;;;;;;5046885;28;20017;-70
2023/06/09 22:24:07;;;;;;;7.72;5.80;;;22.70;64.10;;;;;;5047107;28;20033;-69
2023/06/09 22:26:33;;;;;;;12.63;8.98;;;22.60;64.50;;;;;;5048351;28;20025;-69
2023/06/09 22:28:59;;;;;;;19.20;11.57;;;22.50;64.90;;;;;;5047012;28;20033;-70
2023/06/09 22:31:26;;;;;;;11.45;7.28;;;22.40;65.60;;;;;;5047121;28;20385;-73
2023/06/09 22:33:55;;;;;;;7.80;6.32;;;22.20;66.50;;;;;;5047572;28;20025;-75
2023/06/09 22:36:24;;;;;;;8.63;7.00;;;21.90;68.30;;;;;;5047700;28;20025;-70
2023/06/09 22:38:51;;;;;;;9.23;7.32;;;21.60;69.40;;;;;;5048290;28;20055;-71
